sensor_id;sensor_type;location;lat;lon;timestamp;temperature;humidity
41060;DHT22;26811;53.160;8.202;2023-06-22T00:01:58;18.40;99.90
41060;DHT22;26811;53.160;8.202;2023-06-22T00:06:58;18.40;99.90
41060;DHT22;26811;53.160;8.202;2023-06-22T00:11:59;18.40;99.90
41060;DHT22;26811;53.160;8.202;2023-06-22T00:16:59;18.40;99.90
41060;DHT22;26811;53.160;8.202;2023-06-22T00:22:00;18.30;99.90
41060;DHT22;26811;53.160;8.202;2023-06-22T00:27:00;18.30;99.90
41060;DHT22;26811;53.160;8.202;2023-06-22T00:32:01;18.30;99.90
41060;DHT22;26811;53.160;8.202;2023-06-22T00:37:01;18.30;99.90
41060;DHT22;26811;53.160;8.202;2023-06-22T00:42:02;18.30;99.90
41060;DHT22;26811;53.160;8.202;2023-06-22T00:47:03;18.20;99.90
41060;DHT22;26811;53.160;8.202;2023-06-22T00:52:06;18.20;99.90
41060;DHT22;26811;53.160;8.202;2023-06-22T00:57:09;18.20;99.90
41060;DHT22;26811;53.160;8.202;2023-06-22T01:02:12;18.20;99.90
41060;DHT22;26811;53.160;8.202;2023-06-22T01:07:19;18.20;99.90
41060;DHT22;26811;53.160;8.202;2023-06-22T01:12:23;18.20;99.90
41060;DHT22;26811;53.160;8.202;2023-06-22T01:17:25;18.10;99.90
41060;DHT22;26811;53.160;8.202;2023-06-22T01:22:33;18.10;99.90
41060;DHT22;26811;53.160;8.202;2023-06-22T01:28:03;18.10;99.90
41060;DHT22;26811;53.160;8.202;2023-06-22T01:33:06;18.10;99.90
41060;DHT22;26811;53.160;8.202;2023-06-22T01:38:08;18.00;99.90
41060;DHT22;26811;53.160;8.202;2023-06-22T01:43:09;18.00;99.90
41060;DHT22;26811;53.160;8.202;2023-06-22T01:48:10;18.00;99.90
41060;DHT22;26811;53.160;8.202;2023-06-22T01:53:11;17.90;99.90
41060;DHT22;26811;53.160;8.202;2023-06-22T01:58:12;17.90;99.90
41060;DHT22;26811;53.160;8.202;2023-06-22T02:03:27;17.80;99.90
41060;DHT22;26811;53.160;8.202;2023-06-22T02:08:35;17.80;99.90
41060;DHT22;26811;53.160;8.202;2023-06-22T02:13:37;17.70;99.90
41060;DHT22;26811;53.160;8.202;2023-06-22T02:18:48;17.70;99.90
41060;DHT22;26811;53.160;8.202;2023-06-22T02:23:52;17.60;99.90
41060;DHT22;26811;53.160;8.202;2023-06-22T02:28:53;17.50;99.90
41060;DHT22;26811;53.160;8.202;2023-06-22T02:33:53;17.50;99.90
41060;DHT22;26811;53.160;8.202;2023-06-22T02:38:54;17.50;99.90
41060;DHT22;26811;53.160;8.202;2023-06-22T02:43:57;17.40;99.90
41060;DHT22;26811;53.160;8.202;2023-06-22T02:48:58;17.30;99.90
41060;DHT22;26811;53.160;8.202;2023-06-22T02:53:58;17.30;99.90
41060;DHT22;26811;53.160;8.202;2023-06-22T02:58:59;17.20;99.90
41060;DHT22;26811;53.160;8.202;2023-06-22T03:04:03;17.20;99.90
41060;DHT22;26811;53.160;8.202;2023-06-22T03:09:05;17.10;99.90
41060;DHT22;26811;53.160;8.202;2023-06-22T03:14:05;17.10;99.90
41060;DHT22;26811;53.160;8.202;2023-06-22T03:19:06;17.10;99.90
41060;DHT22;26811;53.160;8.202;2023-06-22T03:24:07;17.10;99.90
41060;DHT22;26811;53.160;8.202;2023-06-22T03:29:08;17.10;99.90
41060;DHT22;26811;53.160;8.202;2023-06-22T03:34:08;17.20;99.90
41060;DHT22;26811;53.160;8.202;2023-06-22T03:39:09;17.20;99.90
41060;DHT22;26811;53.160;8.202;2023-06-22T03:44:09;17.30;99.90
41060;DHT22;26811;53.160;8.202;2023-06-22T03:49:12;17.30;99.90
41060;DHT22;26811;53.160;8.202;2023-06-22T03:54:13;17.40;99.90
41060;DHT22;26811;53.160;8.202;2023-06-22T03:59:13;17.40;99.90
41060;DHT22;26811;53.160;8.202;2023-06-22T04:04:14;17.50;99.90
41060;DHT22;26811;53.160;8.202;2023-06-22T04:09:14;17.60;99.90
41060;DHT22;26811;53.160;8.202;2023-06-22T04:14:15;17.70;99.90
41060;DHT22;26811;53.160;8.202;2023-06-22T04:19:15;17.80;99.90
41060;DHT22;26811;53.160;8.202;2023-06-22T04:24:18;17.90;99.90
41060;DHT22;26811;53.160;8.202;2023-06-22T04:29:18;17.90;99.90
41060;DHT22;26811;53.160;8.202;2023-06-22T04:34:19;18.00;99.90
41060;DHT22;26811;53.160;8.202;2023-06-22T04:39:19;18.10;99.90
41060;DHT22;26811;53.160;8.202;2023-06-22T04:44:20;18.20;99.90
41060;DHT22;26811;53.160;8.202;2023-06-22T04:49:29;18.30;99.90
41060;DHT22;26811;53.160;8.202;2023-06-22T04:54:34;18.40;99.90
41060;DHT22;26811;53.160;8.202;2023-06-22T04:59:35;18.50;99.90
41060;DHT22;26811;53.160;8.202;2023-06-22T05:04:36;18.70;99.90
41060;DHT22;26811;53.160;8.202;2023-06-22T05:09:38;18.80;99.90
41060;DHT22;26811;53.160;8.202;2023-06-22T05:14:39;19.00;99.90
41060;DHT22;26811;53.160;8.202;2023-06-22T05:19:41;19.20;99.90
41060;DHT22;26811;53.160;8.202;2023-06-22T05:24:45;19.20;99.90
41060;DHT22;26811;53.160;8.202;2023-06-22T05:29:46;19.30;99.90
41060;DHT22;26811;53.160;8.202;2023-06-22T05:34:47;19.30;99.90
41060;DHT22;26811;53.160;8.202;2023-06-22T05:39:47;19.30;99.90
41060;DHT22;26811;53.160;8.202;2023-06-22T05:44:48;19.50;99.90
41060;DHT22;26811;53.160;8.202;2023-06-22T05:49:48;19.90;99.90
41060;DHT22;26811;53.160;8.202;2023-06-22T05:54:49;20.40;99.90
41060;DHT22;26811;53.160;8.202;2023-06-22T05:59:49;21.70;99.90
41060;DHT22;26811;53.160;8.202;2023-06-22T06:04:50;22.80;99.90
41060;DHT22;26811;53.160;8.202;2023-06-22T06:09:53;22.70;99.90
41060;DHT22;26811;53.160;8.202;2023-06-22T06:14:53;22.30;99.90
41060;DHT22;26811;53.160;8.202;2023-06-22T06:19:55;21.90;99.90
41060;DHT22;26811;53.160;8.202;2023-06-22T06:24:56;21.60;99.90
41060;DHT22;26811;53.160;8.202;2023-06-22T06:29:57;21.80;99.90
41060;DHT22;26811;53.160;8.202;2023-06-22T06:34:58;22.20;99.90
41060;DHT22;26811;53.160;8.202;2023-06-22T06:39:58;22.30;99.90
41060;DHT22;26811;53.160;8.202;2023-06-22T06:44:59;22.40;99.90
41060;DHT22;26811;53.160;8.202;2023-06-22T06:49:59;22.60;99.90
41060;DHT22;26811;53.160;8.202;2023-06-22T06:55:00;23.40;99.90
41060;DHT22;26811;53.160;8.202;2023-06-22T07:00:01;24.10;99.90
41060;DHT22;26811;53.160;8.202;2023-06-22T07:05:02;24.60;99.90
41060;DHT22;26811;53.160;8.202;2023-06-22T07:10:05;24.90;99.90
41060;DHT22;26811;53.160;8.202;2023-06-22T07:15:08;25.10;99.90
41060;DHT22;26811;53.160;8.202;2023-06-22T07:20:10;25.40;99.90
41060;DHT22;26811;53.160;8.202;2023-06-22T07:25:12;25.70;99.90
41060;DHT22;26811;53.160;8.202;2023-06-22T07:30:17;26.30;99.90
41060;DHT22;26811;53.160;8.202;2023-06-22T07:35:18;26.60;99.90
41060;DHT22;26811;53.160;8.202;2023-06-22T07:40:18;26.70;99.90
41060;DHT22;26811;53.160;8.202;2023-06-22T07:45:19;26.90;99.90
41060;DHT22;26811;53.160;8.202;2023-06-22T07:50:19;27.30;99.90
41060;DHT22;26811;53.160;8.202;2023-06-22T07:55:20;26.90;99.90
41060;DHT22;26811;53.160;8.202;2023-06-22T08:00:21;26.60;99.90
41060;DHT22;26811;53.160;8.202;2023-06-22T08:05:22;26.90;99.90
41060;DHT22;26811;53.160;8.202;2023-06-22T08:10:22;27.50;99.90
41060;DHT22;26811;53.160;8.202;2023-06-22T08:15:25;27.90;98.80
41060;DHT22;26811;53.160;8.202;2023-06-22T08:20:27;27.90;98.80
41060;DHT22;26811;53.160;8.202;2023-06-22T08:25:27;27.50;99.60
41060;DHT22;26811;53.160;8.202;2023-06-22T08:30:28;27.40;99.90
41060;DHT22;26811;53.160;8.202;2023-06-22T08:35:28;27.30;99.40
41060;DHT22;26811;53.160;8.202;2023-06-22T08:40:29;27.00;99.90
41060;DHT22;26811;53.160;8.202;2023-06-22T08:45:30;27.00;99.90
41060;DHT22;26811;53.160;8.202;2023-06-22T08:50:30;27.20;98.90
41060;DHT22;26811;53.160;8.202;2023-06-22T08:55:31;27.20;99.90
41060;DHT22;26811;53.160;8.202;2023-06-22T09:00:32;27.30;99.90
41060;DHT22;26811;53.160;8.202;2023-06-22T09:05:36;27.70;99.80
41060;DHT22;26811;53.160;8.202;2023-06-22T09:10:37;27.90;98.60
41060;DHT22;26811;53.160;8.202;2023-06-22T09:15:38;27.90;99.80
41060;DHT22;26811;53.160;8.202;2023-06-22T09:20:38;28.10;99.40
41060;DHT22;26811;53.160;8.202;2023-06-22T09:25:39;28.00;98.60
41060;DHT22;26811;53.160;8.202;2023-06-22T09:30:42;27.70;98.40
41060;DHT22;26811;53.160;8.202;2023-06-22T09:35:43;27.70;99.20
41060;DHT22;26811;53.160;8.202;2023-06-22T09:40:43;27.80;98.70
41060;DHT22;26811;53.160;8.202;2023-06-22T09:45:44;28.20;99.60
41060;DHT22;26811;53.160;8.202;2023-06-22T09:50:44;28.60;97.90
41060;DHT22;26811;53.160;8.202;2023-06-22T09:55:45;28.60;97.70
41060;DHT22;26811;53.160;8.202;2023-06-22T10:00:49;28.40;98.90
41060;DHT22;26811;53.160;8.202;2023-06-22T10:06:24;28.30;99.00
41060;DHT22;26811;53.160;8.202;2023-06-22T10:12:01;28.40;99.30
41060;DHT22;26811;53.160;8.202;2023-06-22T10:17:13;28.50;99.30
41060;DHT22;26811;53.160;8.202;2023-06-22T10:22:14;28.30;98.90
41060;DHT22;26811;53.160;8.202;2023-06-22T10:27:15;28.00;98.60
41060;DHT22;26811;53.160;8.202;2023-06-22T10:32:20;27.80;98.70
41060;DHT22;26811;53.160;8.202;2023-06-22T10:37:26;27.90;99.40
41060;DHT22;26811;53.160;8.202;2023-06-22T10:42:30;28.10;99.90
41060;DHT22;26811;53.160;8.202;2023-06-22T10:48:18;28.30;99.00
41060;DHT22;26811;53.160;8.202;2023-06-22T10:53:19;28.40;98.40
41060;DHT22;26811;53.160;8.202;2023-06-22T10:58:20;28.40;98.50
41060;DHT22;26811;53.160;8.202;2023-06-22T11:03:23;28.40;99.30
41060;DHT22;26811;53.160;8.202;2023-06-22T11:08:35;28.20;98.50
41060;DHT22;26811;53.160;8.202;2023-06-22T11:13:39;28.20;98.50
41060;DHT22;26811;53.160;8.202;2023-06-22T11:18:51;28.30;99.00
41060;DHT22;26811;53.160;8.202;2023-06-22T11:23:52;28.70;99.40
41060;DHT22;26811;53.160;8.202;2023-06-22T11:28:53;29.00;98.40
41060;DHT22;26811;53.160;8.202;2023-06-22T11:33:54;29.00;97.40
41060;DHT22;26811;53.160;8.202;2023-06-22T11:38:54;29.20;99.20
41060;DHT22;26811;53.160;8.202;2023-06-22T11:43:55;29.30;98.90
41060;DHT22;26811;53.160;8.202;2023-06-22T11:48:56;29.30;98.00
41060;DHT22;26811;53.160;8.202;2023-06-22T11:53:56;29.40;97.50
41060;DHT22;26811;53.160;8.202;2023-06-22T11:58:57;29.60;98.10
41060;DHT22;26811;53.160;8.202;2023-06-22T12:03:58;29.60;97.40
41060;DHT22;26811;53.160;8.202;2023-06-22T12:08:59;29.00;96.50
41060;DHT22;26811;53.160;8.202;2023-06-22T12:14:00;28.20;97.40
41060;DHT22;26811;53.160;8.202;2023-06-22T12:19:02;27.70;98.80
41060;DHT22;26811;53.160;8.202;2023-06-22T12:24:02;27.30;99.20
41060;DHT22;26811;53.160;8.202;2023-06-22T12:29:03;27.10;99.60
41060;DHT22;26811;53.160;8.202;2023-06-22T12:34:04;26.90;98.80
41060;DHT22;26811;53.160;8.202;2023-06-22T12:39:04;26.80;99.90
41060;DHT22;26811;53.160;8.202;2023-06-22T12:44:05;26.70;99.40
41060;DHT22;26811;53.160;8.202;2023-06-22T12:49:06;26.50;99.70
41060;DHT22;26811;53.160;8.202;2023-06-22T12:54:07;26.50;99.90
41060;DHT22;26811;53.160;8.202;2023-06-22T12:59:07;26.50;99.90
41060;DHT22;26811;53.160;8.202;2023-06-22T13:04:08;26.70;99.90
41060;DHT22;26811;53.160;8.202;2023-06-22T13:09:11;27.30;99.90
41060;DHT22;26811;53.160;8.202;2023-06-22T13:14:12;27.60;99.90
41060;DHT22;26811;53.160;8.202;2023-06-22T13:19:13;27.70;99.90
41060;DHT22;26811;53.160;8.202;2023-06-22T13:24:13;27.60;99.90
41060;DHT22;26811;53.160;8.202;2023-06-22T13:29:14;27.50;99.90
41060;DHT22;26811;53.160;8.202;2023-06-22T13:34:14;27.40;99.90
41060;DHT22;26811;53.160;8.202;2023-06-22T13:39:15;27.20;99.90
41060;DHT22;26811;53.160;8.202;2023-06-22T13:44:16;26.90;99.90
41060;DHT22;26811;53.160;8.202;2023-06-22T13:49:17;26.60;99.90
41060;DHT22;26811;53.160;8.202;2023-06-22T13:54:17;26.50;99.90
41060;DHT22;26811;53.160;8.202;2023-06-22T13:59:18;26.30;99.90
41060;DHT22;26811;53.160;8.202;2023-06-22T14:04:21;26.30;99.90
41060;DHT22;26811;53.160;8.202;2023-06-22T14:09:22;26.20;99.90
41060;DHT22;26811;53.160;8.202;2023-06-22T14:14:26;25.90;99.90
41060;DHT22;26811;53.160;8.202;2023-06-22T14:19:27;25.70;99.90
41060;DHT22;26811;53.160;8.202;2023-06-22T14:24:27;25.40;99.90
41060;DHT22;26811;53.160;8.202;2023-06-22T14:29:28;25.10;99.90
41060;DHT22;26811;53.160;8.202;2023-06-22T14:34:28;24.90;99.90
41060;DHT22;26811;53.160;8.202;2023-06-22T14:39:29;24.70;99.90
41060;DHT22;26811;53.160;8.202;2023-06-22T14:44:30;24.50;99.90
41060;DHT22;26811;53.160;8.202;2023-06-22T14:49:30;24.40;99.90
41060;DHT22;26811;53.160;8.202;2023-06-22T14:54:33;24.20;99.90
41060;DHT22;26811;53.160;8.202;2023-06-22T14:59:34;24.10;99.90
41060;DHT22;26811;53.160;8.202;2023-06-22T15:04:39;23.90;99.90
41060;DHT22;26811;53.160;8.202;2023-06-22T15:09:40;23.70;99.90
41060;DHT22;26811;53.160;8.202;2023-06-22T15:14:43;23.40;99.90
41060;DHT22;26811;53.160;8.202;2023-06-22T15:19:44;23.30;99.90
41060;DHT22;26811;53.160;8.202;2023-06-22T15:24:44;23.20;99.90
41060;DHT22;26811;53.160;8.202;2023-06-22T15:29:46;23.00;99.90
41060;DHT22;26811;53.160;8.202;2023-06-22T15:34:46;22.80;99.90
41060;DHT22;26811;53.160;8.202;2023-06-22T15:39:47;22.80;99.90
41060;DHT22;26811;53.160;8.202;2023-06-22T15:44:48;22.70;99.90
41060;DHT22;26811;53.160;8.202;2023-06-22T15:49:49;22.60;99.90
41060;DHT22;26811;53.160;8.202;2023-06-22T15:54:50;22.40;99.90
41060;DHT22;26811;53.160;8.202;2023-06-22T15:59:51;22.30;99.90
41060;DHT22;26811;53.160;8.202;2023-06-22T16:04:52;22.20;99.90
41060;DHT22;26811;53.160;8.202;2023-06-22T16:09:54;22.10;99.90
41060;DHT22;26811;53.160;8.202;2023-06-22T16:14:55;22.00;99.90
41060;DHT22;26811;53.160;8.202;2023-06-22T16:19:55;21.90;99.90
41060;DHT22;26811;53.160;8.202;2023-06-22T16:24:58;21.90;99.90
41060;DHT22;26811;53.160;8.202;2023-06-22T16:29:59;21.80;99.90
41060;DHT22;26811;53.160;8.202;2023-06-22T16:34:59;21.80;99.90
41060;DHT22;26811;53.160;8.202;2023-06-22T16:40:00;21.80;99.90
41060;DHT22;26811;53.160;8.202;2023-06-22T16:45:01;21.70;99.90
41060;DHT22;26811;53.160;8.202;2023-06-22T16:50:01;21.80;99.90
41060;DHT22;26811;53.160;8.202;2023-06-22T16:55:05;21.90;99.90
41060;DHT22;26811;53.160;8.202;2023-06-22T17:00:06;22.00;99.90
41060;DHT22;26811;53.160;8.202;2023-06-22T17:05:12;22.00;99.90
41060;DHT22;26811;53.160;8.202;2023-06-22T17:10:13;22.00;99.90
41060;DHT22;26811;53.160;8.202;2023-06-22T17:15:14;22.00;99.90
41060;DHT22;26811;53.160;8.202;2023-06-22T17:20:15;21.90;99.90
41060;DHT22;26811;53.160;8.202;2023-06-22T17:25:17;21.90;99.90
41060;DHT22;26811;53.160;8.202;2023-06-22T17:30:19;21.90;99.90
41060;DHT22;26811;53.160;8.202;2023-06-22T17:35:21;21.80;99.90
41060;DHT22;26811;53.160;8.202;2023-06-22T17:40:24;21.80;99.90
41060;DHT22;26811;53.160;8.202;2023-06-22T17:45:25;21.70;99.90
41060;DHT22;26811;53.160;8.202;2023-06-22T17:50:25;21.70;99.90
41060;DHT22;26811;53.160;8.202;2023-06-22T17:55:26;21.70;99.90
41060;DHT22;26811;53.160;8.202;2023-06-22T18:00:27;21.60;99.90
41060;DHT22;26811;53.160;8.202;2023-06-22T18:05:36;21.60;99.90
41060;DHT22;26811;53.160;8.202;2023-06-22T18:10:38;21.50;99.90
41060;DHT22;26811;53.160;8.202;2023-06-22T18:15:39;21.50;99.90
41060;DHT22;26811;53.160;8.202;2023-06-22T18:20:40;21.50;99.90
41060;DHT22;26811;53.160;8.202;2023-06-22T18:25:42;21.50;99.90
41060;DHT22;26811;53.160;8.202;2023-06-22T18:30:48;21.50;99.90
41060;DHT22;26811;53.160;8.202;2023-06-22T18:35:58;21.50;99.90
41060;DHT22;26811;53.160;8.202;2023-06-22T18:41:03;21.50;99.90
41060;DHT22;26811;53.160;8.202;2023-06-22T18:46:33;21.50;99.90
41060;DHT22;26811;53.160;8.202;2023-06-22T18:58:12;21.20;99.90
41060;DHT22;26811;53.160;8.202;2023-06-22T19:03:30;20.70;99.90
41060;DHT22;26811;53.160;8.202;2023-06-22T19:09:12;20.30;99.90
41060;DHT22;26811;53.160;8.202;2023-06-22T19:14:22;20.00;99.90
41060;DHT22;26811;53.160;8.202;2023-06-22T19:19:23;19.70;99.90
41060;DHT22;26811;53.160;8.202;2023-06-22T19:24:30;19.50;99.90
41060;DHT22;26811;53.160;8.202;2023-06-22T19:29:31;19.40;99.90
41060;DHT22;26811;53.160;8.202;2023-06-22T19:34:34;19.30;99.90
41060;DHT22;26811;53.160;8.202;2023-06-22T19:39:36;19.20;99.90
41060;DHT22;26811;53.160;8.202;2023-06-22T19:44:36;19.10;99.90
41060;DHT22;26811;53.160;8.202;2023-06-22T19:49:37;19.00;99.90
41060;DHT22;26811;53.160;8.202;2023-06-22T19:54:41;19.00;99.90
41060;DHT22;26811;53.160;8.202;2023-06-22T19:59:41;18.90;99.90
41060;DHT22;26811;53.160;8.202;2023-06-22T20:04:44;18.90;99.90
41060;DHT22;26811;53.160;8.202;2023-06-22T20:09:45;18.80;99.90
41060;DHT22;26811;53.160;8.202;2023-06-22T20:14:46;18.80;99.90
41060;DHT22;26811;53.160;8.202;2023-06-22T20:19:53;18.80;99.90
41060;DHT22;26811;53.160;8.202;2023-06-22T20:24:54;18.80;99.90
41060;DHT22;26811;53.160;8.202;2023-06-22T20:29:55;18.80;99.90
41060;DHT22;26811;53.160;8.202;2023-06-22T20:34:55;18.80;99.90
41060;DHT22;26811;53.160;8.202;2023-06-22T20:39:59;18.80;99.90
41060;DHT22;26811;53.160;8.202;2023-06-22T20:44:59;18.80;99.90
41060;DHT22;26811;53.160;8.202;2023-06-22T20:50:00;18.80;99.90
41060;DHT22;26811;53.160;8.202;2023-06-22T20:55:01;18.80;99.90
41060;DHT22;26811;53.160;8.202;2023-06-22T21:00:02;18.70;99.90
41060;DHT22;26811;53.160;8.202;2023-06-22T21:05:08;18.60;99.90
41060;DHT22;26811;53.160;8.202;2023-06-22T21:10:09;18.50;99.90
41060;DHT22;26811;53.160;8.202;2023-06-22T21:15:10;18.50;99.90
41060;DHT22;26811;53.160;8.202;2023-06-22T21:20:13;18.50;99.90
41060;DHT22;26811;53.160;8.202;2023-06-22T21:25:15;18.50;99.90
41060;DHT22;26811;53.160;8.202;2023-06-22T21:30:15;18.50;99.90
41060;DHT22;26811;53.160;8.202;2023-06-22T21:35:16;18.30;99.90
41060;DHT22;26811;53.160;8.202;2023-06-22T21:40:17;18.30;99.90
41060;DHT22;26811;53.160;8.202;2023-06-22T21:45:17;18.20;99.90
41060;DHT22;26811;53.160;8.202;2023-06-22T21:50:19;18.10;99.90
41060;DHT22;26811;53.160;8.202;2023-06-22T21:55:20;18.00;99.90
41060;DHT22;26811;53.160;8.202;2023-06-22T22:00:21;18.00;99.90
41060;DHT22;26811;53.160;8.202;2023-06-22T22:05:21;17.80;99.90
41060;DHT22;26811;53.160;8.202;2023-06-22T22:10:23;17.70;99.90
41060;DHT22;26811;53.160;8.202;2023-06-22T22:15:23;17.60;99.90
41060;DHT22;26811;53.160;8.202;2023-06-22T22:20:24;17.50;99.90
41060;DHT22;26811;53.160;8.202;2023-06-22T22:25:25;17.40;99.90
41060;DHT22;26811;53.160;8.202;2023-06-22T22:30:26;17.30;99.90
41060;DHT22;26811;53.160;8.202;2023-06-22T22:35:27;17.30;99.90
41060;DHT22;26811;53.160;8.202;2023-06-22T22:40:27;17.30;99.90
41060;DHT22;26811;53.160;8.202;2023-06-22T22:45:28;17.40;99.90
41060;DHT22;26811;53.160;8.202;2023-06-22T22:50:28;17.50;99.90
41060;DHT22;26811;53.160;8.202;2023-06-22T22:55:29;17.50;99.90
41060;DHT22;26811;53.160;8.202;2023-06-22T23:00:31;17.50;99.90
41060;DHT22;26811;53.160;8.202;2023-06-22T23:05:31;17.50;99.90
41060;DHT22;26811;53.160;8.202;2023-06-22T23:10:32;17.50;99.90
41060;DHT22;26811;53.160;8.202;2023-06-22T23:15:33;17.50;99.90
41060;DHT22;26811;53.160;8.202;2023-06-22T23:20:33;17.50;99.90
41060;DHT22;26811;53.160;8.202;2023-06-22T23:25:34;17.60;99.90
41060;DHT22;26811;53.160;8.202;2023-06-22T23:30:34;17.60;99.90
41060;DHT22;26811;53.160;8.202;2023-06-22T23:35:35;17.60;99.90
41060;DHT22;26811;53.160;8.202;2023-06-22T23:40:37;17.50;99.90
41060;DHT22;26811;53.160;8.202;2023-06-22T23:45:39;17.50;99.90
41060;DHT22;26811;53.160;8.202;2023-06-22T23:50:40;17.50;99.90
41060;DHT22;26811;53.160;8.202;2023-06-22T23:55:41;17.50;99.90
